Time;durP1;ratioP1;P1;durP2;ratioP2;P2;SDS_P1;SDS_P2;PMS_P1;PMS_P2;Temp;Humidity;BMP_temperature;BMP_pressure;BME280_temperature;BME280_humidity;BME280_pressure;Samples;Min_cycle;Max_cycle;Signal;HPM_P1;HPM_P2
2022/10/20 00:01:41;;;;;;;2.35;2.25;;;7.40;99.90;;;;;;5090712;28;20196;-76
2022/10/20 00:04:08;;;;;;;0.50;0.40;;;7.40;99.90;;;;;;5090942;28;20194;-76
2022/10/20 00:06:35;;;;;;;0.50;0.40;;;7.50;99.90;;;;;;5091099;28;20223;-75
2022/10/20 00:09:03;;;;;;;0.50;0.40;;;7.50;99.90;;;;;;5090926;28;20194;-76
2022/10/20 00:11:30;;;;;;;0.50;0.40;;;7.40;99.90;;;;;;5090608;28;20289;-76
2022/10/20 00:13:59;;;;;;;0.50;0.40;;;7.40;99.90;;;;;;5090401;28;20213;-76
2022/10/20 00:16:28;;;;;;;0.50;0.40;;;7.40;99.90;;;;;;5090743;28;20220;-76
2022/10/20 00:18:56;;;;;;;0.50;0.50;;;7.40;99.90;;;;;;5090922;28;20193;-76
2022/10/20 00:21:24;;;;;;;1.05;0.95;;;7.40;99.90;;;;;;5090783;28;20197;-75
2022/10/20 00:23:51;;;;;;;0.50;0.40;;;7.40;99.90;;;;;;5090819;28;20191;-76
2022/10/20 00:26:20;;;;;;;0.50;0.40;;;7.40;99.90;;;;;;5089651;28;20224;-75
2022/10/20 00:28:47;;;;;;;0.50;0.40;;;7.40;99.90;;;;;;5090767;28;20200;-76
2022/10/20 00:31:16;;;;;;;0.50;0.40;;;7.30;99.90;;;;;;5091336;28;20276;-76
2022/10/20 00:33:43;;;;;;;1.30;1.20;;;7.30;99.90;;;;;;5094383;28;20226;-76
2022/10/20 00:36:13;;;;;;;0.50;0.40;;;7.30;99.90;;;;;;5095307;28;20220;-76
2022/10/20 00:38:40;;;;;;;0.50;0.40;;;7.30;99.90;;;;;;5094386;28;20569;-76
2022/10/20 00:41:07;;;;;;;0.50;0.40;;;7.30;99.90;;;;;;5094041;28;20574;-76
2022/10/20 00:43:53;;;;;;;0.50;0.40;;;7.20;99.90;;;;;;5094447;28;20283;-76
2022/10/20 00:46:24;;;;;;;0.50;0.50;;;7.20;99.90;;;;;;5094066;28;20223;-76
2022/10/20 00:48:54;;;;;;;0.50;0.40;;;7.10;99.90;;;;;;5094342;28;20184;-76
2022/10/20 00:51:25;;;;;;;0.50;0.40;;;7.10;99.90;;;;;;5094228;28;20312;-76
2022/10/20 00:53:55;;;;;;;0.50;0.40;;;7.10;99.90;;;;;;5093372;28;20226;-75
2022/10/20 00:56:23;;;;;;;0.50;0.40;;;7.10;99.90;;;;;;5093861;28;20215;-75
2022/10/20 00:58:50;;;;;;;0.50;0.40;;;7.10;99.90;;;;;;5094072;28;20287;-76
2022/10/20 01:01:18;;;;;;;1.00;0.75;;;7.00;99.90;;;;;;5094097;28;20618;-76
2022/10/20 01:03:48;;;;;;;0.98;0.73;;;7.00;99.90;;;;;;5093797;28;20594;-76
2022/10/20 01:06:16;;;;;;;0.50;0.40;;;7.10;99.90;;;;;;5093112;28;20307;-76
2022/10/20 01:08:43;;;;;;;0.50;0.40;;;7.10;99.90;;;;;;5094044;28;20207;-75
2022/10/20 01:11:18;;;;;;;0.60;0.60;;;7.10;99.90;;;;;;5093577;28;20188;-76
2022/10/20 01:13:57;;;;;;;2.88;2.40;;;7.10;99.90;;;;;;5093837;28;20207;-75
2022/10/20 01:16:30;;;;;;;0.60;0.60;;;7.10;99.90;;;;;;5093117;28;20707;-76
2022/10/20 01:19:07;;;;;;;0.50;0.40;;;7.10;99.90;;;;;;5093588;28;20540;-76
2022/10/20 01:21:56;;;;;;;0.50;0.40;;;7.00;99.90;;;;;;5093853;28;20531;-76
2022/10/20 01:24:50;;;;;;;0.50;0.40;;;7.00;99.90;;;;;;5093033;28;20746;-75
2022/10/20 01:27:33;;;;;;;0.50;0.40;;;7.00;99.90;;;;;;5093659;28;20562;-76
2022/10/20 01:30:10;;;;;;;1.00;0.90;;;7.00;99.90;;;;;;5093466;28;20259;-76
2022/10/20 01:33:11;;;;;;;0.50;0.40;;;7.00;99.90;;;;;;5093233;28;20180;-76
2022/10/20 01:35:49;;;;;;;0.60;0.60;;;7.00;99.90;;;;;;5092899;28;20218;-76
2022/10/20 01:38:23;;;;;;;0.50;0.40;;;7.00;99.90;;;;;;5093358;28;20270;-76
2022/10/20 01:40:55;;;;;;;0.50;0.40;;;7.00;99.90;;;;;;5092915;28;20186;-75
2022/10/20 01:43:28;;;;;;;0.50;0.40;;;7.00;99.90;;;;;;5092166;28;20205;-75
2022/10/20 01:45:58;;;;;;;0.60;0.60;;;7.00;99.90;;;;;;5092699;28;20589;-75
2022/10/20 01:48:28;;;;;;;0.50;0.40;;;7.00;99.90;;;;;;5093159;28;20194;-76
2022/10/20 01:50:56;;;;;;;0.50;0.40;;;7.00;99.90;;;;;;5093026;28;20198;-75
2022/10/20 01:53:22;;;;;;;0.50;0.40;;;6.90;99.90;;;;;;5092887;28;20685;-76
2022/10/20 01:55:51;;;;;;;0.50;0.40;;;6.90;99.90;;;;;;5092103;28;20223;-76
2022/10/20 01:58:49;;;;;;;0.50;0.40;;;6.90;99.90;;;;;;5092687;28;20225;-76
2022/10/20 02:01:28;;;;;;;0.50;0.40;;;6.80;99.90;;;;;;5092901;28;20697;-76
2022/10/20 02:03:57;;;;;;;0.70;0.70;;;6.80;99.90;;;;;;5092457;28;20647;-75
2022/10/20 02:06:36;;;;;;;0.50;0.40;;;6.80;99.90;;;;;;5092675;28;20259;-76
2022/10/20 02:09:06;;;;;;;0.50;0.40;;;6.80;99.90;;;;;;5092855;28;20182;-75
2022/10/20 02:11:41;;;;;;;0.50;0.40;;;6.80;99.90;;;;;;5092572;28;20216;-75
2022/10/20 02:14:12;;;;;;;0.50;0.40;;;6.80;99.90;;;;;;5092366;28;20207;-76
2022/10/20 02:16:44;;;;;;;0.50;0.40;;;6.90;99.90;;;;;;5092324;28;20567;-75
2022/10/20 02:19:12;;;;;;;0.50;0.40;;;6.90;99.90;;;;;;5092334;28;20195;-75
2022/10/20 02:21:39;;;;;;;0.50;0.40;;;6.90;99.90;;;;;;5092663;28;20622;-76
2022/10/20 02:24:08;;;;;;;0.60;0.60;;;6.90;99.90;;;;;;5092337;28;20191;-76
2022/10/20 02:26:39;;;;;;;0.50;0.40;;;6.90;99.90;;;;;;5091277;28;20220;-76
2022/10/20 02:29:13;;;;;;;0.50;0.50;;;6.90;99.90;;;;;;5092270;28;20172;-76
2022/10/20 02:31:41;;;;;;;0.50;0.40;;;6.80;99.90;;;;;;5092444;28;20175;-76
2022/10/20 02:34:08;;;;;;;0.50;0.40;;;6.80;99.90;;;;;;5091789;28;20221;-75
2022/10/20 02:36:39;;;;;;;0.50;0.40;;;6.90;99.90;;;;;;5091975;28;20209;-75
2022/10/20 02:39:06;;;;;;;0.50;0.40;;;6.90;99.90;;;;;;5092676;28;20190;-76
2022/10/20 02:41:33;;;;;;;0.50;0.40;;;6.90;99.90;;;;;;5091925;28;20197;-76
2022/10/20 02:44:00;;;;;;;0.50;0.40;;;6.90;99.90;;;;;;5091772;28;20656;-76
2022/10/20 02:46:28;;;;;;;0.50;0.40;;;6.90;99.90;;;;;;5092121;28;20219;-76
2022/10/20 02:48:55;;;;;;;0.50;0.40;;;6.90;99.90;;;;;;5092231;28;20197;-76
2022/10/20 02:51:22;;;;;;;0.50;0.40;;;7.00;99.90;;;;;;5091334;28;20995;-76
2022/10/20 02:53:49;;;;;;;0.50;0.40;;;7.00;99.90;;;;;;5091722;28;20197;-75
2022/10/20 02:56:16;;;;;;;0.98;0.60;;;7.00;99.90;;;;;;5091870;28;20736;-76
2022/10/20 02:58:43;;;;;;;0.50;0.40;;;7.00;99.90;;;;;;5091992;28;20196;-76
2022/10/20 03:01:09;;;;;;;0.50;0.40;;;7.00;99.90;;;;;;5091827;28;20286;-76
2022/10/20 03:03:38;;;;;;;0.57;0.55;;;7.00;99.90;;;;;;5091440;28;20194;-76
2022/10/20 03:06:09;;;;;;;0.50;0.40;;;7.00;99.90;;;;;;5091721;28;20727;-76
2022/10/20 03:08:36;;;;;;;0.50;0.40;;;6.90;99.90;;;;;;5091579;28;20652;-76
2022/10/20 03:11:03;;;;;;;0.70;0.70;;;6.90;99.90;;;;;;5091538;28;20192;-76
2022/10/20 03:13:29;;;;;;;0.50;0.40;;;6.90;99.90;;;;;;5091595;28;20194;-76
2022/10/20 03:15:56;;;;;;;0.80;0.80;;;6.90;99.90;;;;;;5091236;28;20582;-76
2022/10/20 03:18:24;;;;;;;0.60;0.60;;;6.90;99.90;;;;;;5091633;28;20194;-77
2022/10/20 03:20:52;;;;;;;1.02;1.02;;;6.90;99.90;;;;;;5091460;28;20202;-77
2022/10/20 03:23:20;;;;;;;1.70;1.60;;;6.90;99.90;;;;;;5091259;28;20728;-76
2022/10/20 03:25:47;;;;;;;0.50;0.40;;;7.00;99.90;;;;;;5090686;28;20233;-77
2022/10/20 03:28:14;;;;;;;0.50;0.40;;;6.90;99.90;;;;;;5091690;28;20199;-77
2022/10/20 03:30:40;;;;;;;0.50;0.40;;;6.90;99.90;;;;;;5091949;28;20281;-77
2022/10/20 03:33:07;;;;;;;5.05;4.70;;;6.90;99.90;;;;;;5091723;28;20200;-76
2022/10/20 03:35:34;;;;;;;0.50;0.40;;;6.90;99.90;;;;;;5091150;28;20301;-77
2022/10/20 03:38:02;;;;;;;0.50;0.40;;;6.90;99.90;;;;;;5091607;28;20282;-77
2022/10/20 03:40:29;;;;;;;0.50;0.40;;;7.00;99.90;;;;;;5091200;28;20193;-77
2022/10/20 03:42:56;;;;;;;0.50;0.40;;;6.90;99.90;;;;;;5091609;28;20186;-77
2022/10/20 03:45:23;;;;;;;0.50;0.40;;;6.90;99.90;;;;;;5090487;28;20202;-76
2022/10/20 03:47:50;;;;;;;0.50;0.40;;;6.90;99.90;;;;;;5091642;28;20208;-76
2022/10/20 03:50:17;;;;;;;0.82;0.82;;;6.90;99.90;;;;;;5091043;28;20712;-76
2022/10/20 03:52:43;;;;;;;0.50;0.40;;;6.90;99.90;;;;;;5078019;28;20214;-77
2022/10/20 03:55:11;;;;;;;0.50;0.40;;;6.90;99.90;;;;;;5070500;28;20219;-76
2022/10/20 03:57:38;;;;;;;1.33;1.27;;;6.90;99.90;;;;;;5071054;28;20288;-76
2022/10/20 04:00:06;;;;;;;0.70;0.70;;;6.90;99.90;;;;;;5070692;28;20564;-77
2022/10/20 04:02:35;;;;;;;0.50;0.40;;;7.00;99.90;;;;;;5070892;28;20192;-76
2022/10/20 04:05:03;;;;;;;0.50;0.40;;;7.00;99.90;;;;;;5070788;28;20546;-77
2022/10/20 04:07:30;;;;;;;0.50;0.40;;;7.00;99.90;;;;;;5073517;28;20190;-76
2022/10/20 04:09:57;;;;;;;1.45;1.35;;;7.00;99.90;;;;;;5074452;28;20195;-76
2022/10/20 04:12:25;;;;;;;0.50;0.40;;;6.90;99.90;;;;;;5074758;28;20190;-75
2022/10/20 04:14:52;;;;;;;0.50;0.40;;;6.90;99.90;;;;;;5074361;28;20221;-75
2022/10/20 04:17:19;;;;;;;0.50;0.40;;;7.00;99.90;;;;;;5074653;28;20566;-75
2022/10/20 04:19:46;;;;;;;0.50;0.40;;;7.00;99.90;;;;;;5074542;28;20190;-75
2022/10/20 04:22:13;;;;;;;0.50;0.40;;;7.00;99.90;;;;;;5074690;28;20560;-75
2022/10/20 04:24:40;;;;;;;0.50;0.40;;;7.00;99.90;;;;;;5072999;28;20680;-76
2022/10/20 04:27:06;;;;;;;0.50;0.40;;;7.00;99.90;;;;;;5074576;28;20211;-75
2022/10/20 04:29:35;;;;;;;0.50;0.40;;;7.00;99.90;;;;;;5074224;28;20214;-75
2022/10/20 04:32:02;;;;;;;0.50;0.50;;;7.00;99.90;;;;;;5074017;28;20200;-74
2022/10/20 04:34:29;;;;;;;0.50;0.40;;;7.00;99.90;;;;;;5073412;28;20200;-75
2022/10/20 04:36:56;;;;;;;0.50;0.40;;;7.10;99.90;;;;;;5073742;28;20802;-75
2022/10/20 04:39:24;;;;;;;0.50;0.40;;;7.10;99.90;;;;;;5074404;28;20194;-75
2022/10/20 04:41:50;;;;;;;0.50;0.40;;;7.10;99.90;;;;;;5074273;28;20315;-75
2022/10/20 04:44:17;;;;;;;0.50;0.40;;;7.10;99.90;;;;;;5073867;28;20238;-74
2022/10/20 04:46:45;;;;;;;0.50;0.40;;;7.20;99.90;;;;;;5073588;28;20213;-75
2022/10/20 04:49:12;;;;;;;0.50;0.40;;;7.10;99.90;;;;;;5073614;28;20286;-75
2022/10/20 04:51:39;;;;;;;0.50;0.40;;;7.10;99.90;;;;;;5073993;28;20196;-75
2022/10/20 04:54:06;;;;;;;0.50;0.40;;;7.10;99.90;;;;;;5073674;28;20280;-75
2022/10/20 04:56:33;;;;;;;0.50;0.40;;;7.10;99.90;;;;;;5073727;28;20262;-75
2022/10/20 04:59:00;;;;;;;0.50;0.40;;;7.10;99.90;;;;;;5073590;28;20205;-75
2022/10/20 05:01:29;;;;;;;0.50;0.40;;;7.10;99.90;;;;;;5073633;28;20195;-76
2022/10/20 05:03:57;;;;;;;0.50;0.40;;;7.20;99.90;;;;;;5074168;28;20195;-75
2022/10/20 05:06:26;;;;;;;0.50;0.40;;;7.20;99.90;;;;;;5072591;28;20588;-75
2022/10/20 05:08:55;;;;;;;0.50;0.40;;;7.20;99.90;;;;;;5073211;28;20244;-75
2022/10/20 05:11:24;;;;;;;0.50;0.40;;;7.20;99.90;;;;;;5073234;28;20281;-75
2022/10/20 05:13:51;;;;;;;0.50;0.40;;;7.20;99.90;;;;;;5073300;28;20214;-74
2022/10/20 05:16:19;;;;;;;0.50;0.40;;;7.20;99.90;;;;;;5072889;28;20230;-75
2022/10/20 05:18:47;;;;;;;0.50;0.40;;;7.30;99.90;;;;;;5071474;28;20191;-75
2022/10/20 05:21:17;;;;;;;0.50;0.40;;;7.20;99.90;;;;;;5073165;28;20203;-76
2022/10/20 05:23:45;;;;;;;1.20;1.20;;;7.20;99.90;;;;;;5073608;28;20558;-73
2022/10/20 05:26:14;;;;;;;1.75;1.65;;;7.20;99.90;;;;;;5072813;28;20610;-75
2022/10/20 05:28:44;;;;;;;2.35;1.05;;;7.20;99.90;;;;;;5073321;28;20205;-76
2022/10/20 05:31:11;;;;;;;0.50;0.40;;;7.20;99.90;;;;;;5072655;28;20203;-75
2022/10/20 05:33:39;;;;;;;0.50;0.40;;;7.30;99.90;;;;;;5073057;28;20278;-75
2022/10/20 05:36:10;;;;;;;0.50;0.43;;;7.30;99.90;;;;;;5072422;28;20223;-75
2022/10/20 05:38:39;;;;;;;0.50;0.40;;;7.30;99.90;;;;;;5072805;28;20192;-75
2022/10/20 05:41:07;;;;;;;0.60;0.50;;;7.30;99.90;;;;;;5072700;28;20195;-75
2022/10/20 05:43:34;;;;;;;0.50;0.40;;;7.30;99.90;;;;;;5072328;28;20694;-75
2022/10/20 05:46:01;;;;;;;0.50;0.40;;;7.30;99.90;;;;;;5072186;28;20612;-75
2022/10/20 05:48:28;;;;;;;0.50;0.40;;;7.20;99.90;;;;;;5072258;28;20203;-75
2022/10/20 05:50:55;;;;;;;0.50;0.40;;;7.20;99.90;;;;;;5072799;28;20199;-75
2022/10/20 05:53:22;;;;;;;1.13;1.02;;;7.20;99.90;;;;;;5072156;28;20194;-75
2022/10/20 05:55:50;;;;;;;0.50;0.40;;;7.20;99.90;;;;;;5071990;28;20302;-75
2022/10/20 05:58:17;;;;;;;0.50;0.40;;;7.30;99.90;;;;;;5072449;28;20202;-75
2022/10/20 06:00:51;;;;;;;0.50;0.40;;;7.30;99.90;;;;;;5073560;28;20192;-75
2022/10/20 06:03:18;;;;;;;0.50;0.40;;;7.30;99.90;;;;;;5072196;28;20201;-75
2022/10/20 06:05:45;;;;;;;0.50;0.40;;;7.30;99.90;;;;;;5072175;28;20216;-72
2022/10/20 06:08:11;;;;;;;0.50;0.40;;;7.30;99.90;;;;;;5071834;28;20194;-75
2022/10/20 06:10:38;;;;;;;0.50;0.40;;;7.30;99.90;;;;;;5072373;28;20290;-75
2022/10/20 06:13:06;;;;;;;0.50;0.40;;;7.30;99.90;;;;;;5072504;28;20192;-73
2022/10/20 06:15:33;;;;;;;0.73;0.73;;;7.40;99.90;;;;;;5071834;28;20310;-74
2022/10/20 06:18:00;;;;;;;0.50;0.40;;;7.50;99.90;;;;;;5071779;28;20203;-73
2022/10/20 06:20:27;;;;;;;0.50;0.40;;;7.50;99.90;;;;;;5071772;28;20206;-75
2022/10/20 06:22:54;;;;;;;0.50;0.40;;;7.60;99.90;;;;;;5071906;28;20202;-75
2022/10/20 06:25:20;;;;;;;0.50;0.40;;;7.60;99.90;;;;;;5071220;28;20310;-75
2022/10/20 06:27:47;;;;;;;0.50;0.40;;;7.60;99.90;;;;;;5071953;28;20289;-74
2022/10/20 06:30:15;;;;;;;0.50;0.40;;;7.60;99.90;;;;;;5071061;28;20281;-74
2022/10/20 06:32:42;;;;;;;0.50;0.40;;;7.70;99.90;;;;;;5071717;28;20203;-75
2022/10/20 06:35:09;;;;;;;1.63;1.52;;;7.80;99.90;;;;;;5071046;28;20198;-75
2022/10/20 06:37:36;;;;;;;0.50;0.40;;;7.80;99.90;;;;;;5072604;28;20295;-75
2022/10/20 06:40:03;;;;;;;0.82;0.82;;;7.80;99.90;;;;;;5071915;28;20631;-74
2022/10/20 06:42:29;;;;;;;0.50;0.40;;;7.90;99.90;;;;;;5071866;28;20614;-75
2022/10/20 06:44:57;;;;;;;0.50;0.40;;;8.00;99.90;;;;;;5070809;28;20192;-75
2022/10/20 06:47:25;;;;;;;0.50;0.40;;;8.10;99.90;;;;;;5071764;28;20265;-75
2022/10/20 06:49:52;;;;;;;0.50;0.40;;;8.10;99.90;;;;;;5071654;28;20201;-75
2022/10/20 06:52:19;;;;;;;0.50;0.40;;;8.20;99.90;;;;;;5071599;28;20197;-74
2022/10/20 06:54:46;;;;;;;0.50;0.40;;;8.20;99.90;;;;;;5071451;28;20200;-75
2022/10/20 06:57:12;;;;;;;0.50;0.40;;;8.20;99.90;;;;;;5070874;28;20780;-75
2022/10/20 06:59:39;;;;;;;0.50;0.40;;;8.30;99.90;;;;;;5071469;28;20201;-75
2022/10/20 07:02:06;;;;;;;0.50;0.40;;;8.30;99.90;;;;;;5071588;28;20587;-75
2022/10/20 07:04:34;;;;;;;0.50;0.40;;;8.30;99.90;;;;;;5070958;28;20205;-74
2022/10/20 07:07:01;;;;;;;0.50;0.40;;;8.30;99.90;;;;;;5070872;28;20215;-75
2022/10/20 07:09:28;;;;;;;0.50;0.40;;;8.40;99.90;;;;;;5071401;28;20303;-75
2022/10/20 07:11:55;;;;;;;0.50;0.40;;;8.50;99.90;;;;;;5071268;28;20579;-75
2022/10/20 07:14:22;;;;;;;0.50;0.40;;;8.50;99.90;;;;;;5071075;28;20234;-75
2022/10/20 07:16:48;;;;;;;0.50;0.40;;;8.60;99.90;;;;;;5072058;28;20255;-75
2022/10/20 07:19:15;;;;;;;0.50;0.40;;;8.70;99.90;;;;;;5070669;28;20200;-75
2022/10/20 07:21:43;;;;;;;0.50;0.40;;;8.80;99.90;;;;;;5071498;28;20203;-75
2022/10/20 07:24:10;;;;;;;0.50;0.40;;;8.90;99.90;;;;;;5070860;28;20250;-74
2022/10/20 07:26:39;;;;;;;0.50;0.40;;;9.10;99.90;;;;;;5070379;28;20311;-75
2022/10/20 07:29:07;;;;;;;0.95;0.80;;;9.20;99.90;;;;;;5071138;28;20205;-75
2022/10/20 07:31:36;;;;;;;0.50;0.40;;;9.40;99.90;;;;;;5071112;28;20671;-75
2022/10/20 07:34:05;;;;;;;0.50;0.40;;;9.60;99.90;;;;;;5070549;28;20204;-75
2022/10/20 07:36:34;;;;;;;0.50;0.40;;;9.70;99.90;;;;;;5070969;28;20232;-75
2022/10/20 07:39:04;;;;;;;3.20;2.90;;;9.90;99.90;;;;;;5071567;28;20204;-75
2022/10/20 07:41:32;;;;;;;0.50;0.40;;;10.20;99.90;;;;;;5071940;28;20178;-75
2022/10/20 07:43:59;;;;;;;0.50;0.40;;;10.40;99.90;;;;;;5074437;28;20307;-75
2022/10/20 07:46:26;;;;;;;0.50;0.50;;;10.50;99.90;;;;;;5075043;28;20214;-75
2022/10/20 07:48:53;;;;;;;0.50;0.40;;;10.90;99.90;;;;;;5074981;28;20239;-75
2022/10/20 07:51:29;;;;;;;0.50;0.40;;;11.30;99.90;;;;;;5074851;28;20201;-75
2022/10/20 07:53:57;;;;;;;0.50;0.40;;;11.80;99.90;;;;;;5074256;28;20296;-74
2022/10/20 07:56:28;;;;;;;0.50;0.40;;;12.50;99.90;;;;;;5074739;28;20563;-75
2022/10/20 07:58:55;;;;;;;1.40;1.30;;;13.20;99.90;;;;;;5074795;28;20430;-75
2022/10/20 08:01:22;;;;;;;0.50;0.40;;;13.80;99.90;;;;;;5074826;28;20440;-75
2022/10/20 08:03:49;;;;;;;0.50;0.33;;;14.20;99.90;;;;;;5074022;28;20523;-76
2022/10/20 08:06:15;;;;;;;0.50;0.40;;;14.40;99.90;;;;;;5074403;28;21004;-75
2022/10/20 08:08:42;;;;;;;0.50;0.40;;;14.50;99.90;;;;;;5074625;28;20518;-75
2022/10/20 08:11:09;;;;;;;0.50;0.40;;;14.50;99.90;;;;;;5074837;28;20496;-75
2022/10/20 08:13:39;;;;;;;0.50;0.30;;;14.60;99.90;;;;;;5074762;28;20442;-75
2022/10/20 08:16:07;;;;;;;0.50;0.40;;;14.50;99.90;;;;;;5074131;28;20483;-75
2022/10/20 08:18:33;;;;;;;1.23;1.13;;;14.40;99.90;;;;;;5073910;28;20435;-75
2022/10/20 08:21:08;;;;;;;0.50;0.30;;;14.30;99.90;;;;;;5073768;28;20934;-75
2022/10/20 08:23:38;;;;;;;0.50;0.40;;;14.20;99.90;;;;;;5074181;28;20447;-75
2022/10/20 08:26:06;;;;;;;0.50;0.30;;;14.20;99.90;;;;;;5073582;28;20460;-75
2022/10/20 08:28:33;;;;;;;0.50;0.40;;;14.40;99.90;;;;;;5073834;28;20443;-75
2022/10/20 08:31:03;;;;;;;0.50;0.40;;;14.60;99.90;;;;;;5074208;28;20439;-74
2022/10/20 08:33:30;;;;;;;1.70;1.60;;;14.90;99.90;;;;;;5074173;28;20924;-74
2022/10/20 08:36:01;;;;;;;0.70;0.70;;;15.20;99.90;;;;;;5073835;28;21005;-74
2022/10/20 08:38:28;;;;;;;1.47;1.37;;;15.50;99.90;;;;;;5074202;28;20482;-76
2022/10/20 08:40:56;;;;;;;0.50;0.40;;;15.50;99.90;;;;;;5073963;28;20451;-74
2022/10/20 08:43:23;;;;;;;0.50;0.40;;;15.60;99.90;;;;;;5073626;28;20959;-74
2022/10/20 08:45:50;;;;;;;0.60;0.60;;;15.80;99.90;;;;;;5073457;28;20554;-74
2022/10/20 08:48:22;;;;;;;1.00;1.00;;;15.80;99.90;;;;;;5073673;28;20527;-74
2022/10/20 08:50:52;;;;;;;1.23;1.13;;;16.00;99.90;;;;;;5073731;28;20425;-74
2022/10/20 08:53:20;;;;;;;1.87;1.77;;;16.10;99.90;;;;;;5073445;28;20443;-74
2022/10/20 08:55:47;;;;;;;1.00;0.70;;;16.10;99.90;;;;;;5073088;28;20464;-75
2022/10/20 08:58:18;;;;;;;0.50;0.30;;;16.20;99.90;;;;;;5073427;28;20957;-74
2022/10/20 09:00:46;;;;;;;0.50;0.40;;;16.70;99.90;;;;;;5073244;28;20448;-75
2022/10/20 09:03:21;;;;;;;0.50;0.40;;;17.10;99.90;;;;;;5073433;28;20444;-75
2022/10/20 09:05:55;;;;;;;1.07;0.70;;;17.70;99.90;;;;;;5073057;28;20820;-75
2022/10/20 09:08:25;;;;;;;1.33;1.33;;;18.50;99.90;;;;;;5073309;28;20439;-75
2022/10/20 09:10:54;;;;;;;1.00;0.93;;;18.70;99.90;;;;;;5073065;28;20962;-74
2022/10/20 09:13:24;;;;;;;0.50;0.30;;;18.90;99.90;;;;;;5073379;28;20503;-75
2022/10/20 09:15:53;;;;;;;0.80;0.63;;;18.70;99.90;;;;;;5073140;28;20543;-74
2022/10/20 09:18:21;;;;;;;0.60;0.50;;;18.20;99.90;;;;;;5072666;28;20432;-74
2022/10/20 09:20:52;;;;;;;1.80;1.23;;;17.50;99.90;;;;;;5073113;28;20446;-74
2022/10/20 09:23:23;;;;;;;1.20;0.97;;;16.90;99.90;;;;;;5073385;28;20420;-74
2022/10/20 09:25:51;;;;;;;0.50;0.40;;;16.30;99.90;;;;;;5072625;28;20468;-75
2022/10/20 09:28:22;;;;;;;0.60;0.53;;;16.10;99.90;;;;;;5072761;28;20441;-74
2022/10/20 09:30:50;;;;;;;1.03;0.80;;;16.20;99.90;;;;;;5072261;28;20432;-74
2022/10/20 09:33:27;;;;;;;1.30;1.20;;;16.10;99.90;;;;;;5072484;28;20440;-74
2022/10/20 09:36:00;;;;;;;1.13;0.70;;;16.10;99.90;;;;;;5072542;28;21000;-73
2022/10/20 09:38:29;;;;;;;0.60;0.57;;;16.00;99.90;;;;;;5072666;28;20416;-75
2022/10/20 09:41:05;;;;;;;0.50;0.40;;;15.90;99.90;;;;;;5072142;28;20438;-74
2022/10/20 09:43:33;;;;;;;0.50;0.40;;;15.90;99.90;;;;;;5072753;28;20515;-74
2022/10/20 09:46:04;;;;;;;1.17;1.07;;;16.00;99.90;;;;;;5072483;28;20460;-74
2022/10/20 09:48:35;;;;;;;0.50;0.50;;;16.00;99.90;;;;;;5072752;28;20421;-75
2022/10/20 09:51:02;;;;;;;0.83;0.83;;;15.80;99.90;;;;;;5072665;28;20503;-74
2022/10/20 09:53:33;;;;;;;0.50;0.40;;;15.80;99.90;;;;;;5072869;28;20534;-74
2022/10/20 09:56:00;;;;;;;0.50;0.40;;;15.70;99.90;;;;;;5072032;28;20818;-74
2022/10/20 09:58:28;;;;;;;2.57;1.33;;;15.70;99.90;;;;;;5072762;28;20482;-74
2022/10/20 10:00:59;;;;;;;0.50;0.40;;;15.70;99.90;;;;;;5072582;28;20467;-76
2022/10/20 10:03:27;;;;;;;1.13;0.50;;;15.70;99.90;;;;;;5072112;28;20638;-74
2022/10/20 10:05:56;;;;;;;0.63;0.63;;;15.70;99.90;;;;;;5071395;28;20949;-74
2022/10/20 10:08:25;;;;;;;0.50;0.33;;;15.70;99.90;;;;;;5072343;28;20442;-74
2022/10/20 10:11:01;;;;;;;0.50;0.40;;;15.50;99.90;;;;;;5072249;28;20450;-74
2022/10/20 10:13:30;;;;;;;0.50;0.40;;;15.50;99.90;;;;;;5071835;28;20435;-74
2022/10/20 10:16:03;;;;;;;1.03;0.93;;;15.50;99.90;;;;;;5071738;28;20458;-76
2022/10/20 10:18:30;;;;;;;1.23;1.13;;;15.40;99.90;;;;;;5071491;28;21018;-74
2022/10/20 10:21:01;;;;;;;1.17;1.03;;;15.30;99.90;;;;;;5072460;28;20432;-74
2022/10/20 10:23:30;;;;;;;0.70;0.50;;;15.20;99.90;;;;;;5071792;28;20443;-74
2022/10/20 10:25:57;;;;;;;0.60;0.53;;;15.20;99.90;;;;;;5071379;28;20467;-73
2022/10/20 10:28:33;;;;;;;6.53;2.13;;;15.20;99.90;;;;;;5071612;28;20450;-74
2022/10/20 10:31:21;;;;;;;0.50;0.40;;;15.20;99.90;;;;;;5072120;28;20440;-74
2022/10/20 10:33:50;;;;;;;0.50;0.50;;;15.10;99.90;;;;;;5071293;28;20442;-74
2022/10/20 10:36:29;;;;;;;1.10;1.10;;;15.10;99.90;;;;;;5071534;28;20991;-74
2022/10/20 10:38:57;;;;;;;0.90;0.90;;;15.00;99.90;;;;;;5071392;28;20535;-74
2022/10/20 10:41:47;;;;;;;1.03;0.77;;;15.10;99.90;;;;;;5071882;28;20440;-75
2022/10/20 10:44:23;;;;;;;6.27;2.33;;;15.10;99.90;;;;;;5071077;28;20803;-75
2022/10/20 10:46:58;;;;;;;4.00;1.10;;;15.10;99.90;;;;;;5071462;28;20478;-74
2022/10/20 10:49:57;;;;;;;1.90;1.67;;;15.10;99.90;;;;;;5071235;28;20420;-74
2022/10/20 10:52:37;;;;;;;0.50;0.50;;;15.00;99.90;;;;;;5037866;28;20444;-74
2022/10/20 10:55:17;;;;;;;1.33;0.60;;;14.90;99.90;;;;;;5071005;28;20450;-75
2022/10/20 10:57:57;;;;;;;1.03;1.03;;;14.90;99.90;;;;;;5071623;28;20490;-75
2022/10/20 11:00:38;;;;;;;2.37;1.23;;;14.90;99.90;;;;;;5071555;28;20428;-75
2022/10/20 11:03:20;;;;;;;2.13;1.97;;;14.80;99.90;;;;;;5071368;28;20448;-74
2022/10/20 11:06:04;;;;;;;2.80;2.17;;;14.90;99.90;;;;;;5072425;28;20499;-75
2022/10/20 11:08:52;;;;;;;3.03;1.27;;;14.90;99.90;;;;;;5071649;28;20519;-75
2022/10/20 11:11:25;;;;;;;0.50;0.43;;;14.90;99.90;;;;;;5069458;28;20452;-74
2022/10/20 11:14:05;;;;;;;2.07;1.97;;;15.00;99.90;;;;;;5071453;28;20440;-74
2022/10/20 11:16:39;;;;;;;2.83;1.90;;;15.10;99.90;;;;;;5071506;28;20462;-74
2022/10/20 11:19:25;;;;;;;7.10;1.47;;;15.10;99.90;;;;;;5071243;28;20440;-74
2022/10/20 11:22:03;;;;;;;0.80;0.77;;;15.20;99.90;;;;;;5071033;28;20432;-74
2022/10/20 11:24:47;;;;;;;1.73;1.63;;;15.20;99.90;;;;;;5071218;28;20423;-76
2022/10/20 11:27:18;;;;;;;0.70;0.60;;;15.20;99.90;;;;;;5070802;28;20443;-75
2022/10/20 11:29:47;;;;;;;1.57;1.40;;;15.20;99.90;;;;;;5070720;28;20439;-74
2022/10/20 11:32:26;;;;;;;0.60;0.60;;;15.30;99.90;;;;;;5071036;28;20531;-76
2022/10/20 11:35:01;;;;;;;5.90;2.50;;;15.40;99.90;;;;;;5070611;28;20444;-74
2022/10/20 11:37:30;;;;;;;1.00;0.63;;;15.50;99.90;;;;;;5070711;28;20477;-75
2022/10/20 11:40:13;;;;;;;0.50;0.40;;;15.60;99.90;;;;;;5071052;28;20436;-74
2022/10/20 11:42:44;;;;;;;0.50;0.47;;;15.60;99.90;;;;;;5070710;28;20440;-75
2022/10/20 11:45:28;;;;;;;3.07;1.47;;;15.60;99.90;;;;;;5070236;28;20440;-75
2022/10/20 11:48:01;;;;;;;0.97;0.97;;;15.50;99.90;;;;;;5071274;28;20630;-75
2022/10/20 11:50:30;;;;;;;0.73;0.57;;;15.50;99.90;;;;;;5070768;28;20452;-75
2022/10/20 11:53:07;;;;;;;0.77;0.77;;;15.40;99.90;;;;;;5070915;28;20440;-75
2022/10/20 11:55:46;;;;;;;0.50;0.40;;;15.30;99.90;;;;;;5070526;28;20462;-75
2022/10/20 11:58:30;;;;;;;1.03;0.93;;;15.20;99.90;;;;;;5070954;28;20460;-75
2022/10/20 12:01:09;;;;;;;2.00;1.17;;;15.10;99.90;;;;;;5070967;28;20450;-74
2022/10/20 12:03:58;;;;;;;1.73;0.67;;;15.00;99.90;;;;;;5070724;28;20450;-75
2022/10/20 12:06:46;;;;;;;3.80;1.17;;;14.90;99.90;;;;;;5070383;28;20460;-74
2022/10/20 12:09:41;;;;;;;0.53;0.53;;;14.70;99.90;;;;;;5071065;28;20427;-75
2022/10/20 12:12:14;;;;;;;1.67;1.23;;;14.60;99.90;;;;;;5070623;28;20440;-74
2022/10/20 12:14:44;;;;;;;2.70;2.60;;;14.50;99.90;;;;;;5070607;28;20424;-74
2022/10/20 12:17:19;;;;;;;2.30;1.50;;;14.40;99.90;;;;;;5070181;28;20989;-75
2022/10/20 12:19:50;;;;;;;1.90;1.80;;;14.30;99.90;;;;;;5070408;28;20443;-75
2022/10/20 12:22:40;;;;;;;0.57;0.57;;;14.20;99.90;;;;;;5070462;28;20432;-74
2022/10/20 12:25:35;;;;;;;0.87;0.60;;;14.20;99.90;;;;;;5069808;28;20448;-75
2022/10/20 12:28:42;;;;;;;3.07;2.87;;;14.10;99.90;;;;;;5037240;28;20458;-74
2022/10/20 12:31:08;;;;;;;0.50;0.40;;;14.10;99.90;;;;;;5074033;28;20434;-74
2022/10/20 12:33:42;;;;;;;2.30;2.20;;;14.00;99.90;;;;;;5074438;28;20447;-75
2022/10/20 12:36:31;;;;;;;0.77;0.60;;;14.00;99.90;;;;;;5074592;28;20470;-74
2022/10/20 12:39:16;;;;;;;0.50;0.40;;;13.90;99.90;;;;;;5073739;28;21004;-75
2022/10/20 12:41:56;;;;;;;0.67;0.67;;;13.90;99.90;;;;;;5074305;28;20821;-75
2022/10/20 12:44:24;;;;;;;0.50;0.40;;;13.90;99.90;;;;;;5074038;28;20439;-74
2022/10/20 12:46:54;;;;;;;2.33;2.23;;;13.90;99.90;;;;;;5073731;28;20462;-74
2022/10/20 12:49:27;;;;;;;4.70;1.20;;;13.90;99.90;;;;;;5073883;28;20442;-75
2022/10/20 12:51:56;;;;;;;0.97;0.90;;;13.90;99.90;;;;;;5074378;28;20433;-75
2022/10/20 12:54:28;;;;;;;1.37;0.80;;;13.80;99.90;;;;;;5073489;28;20447;-75
2022/10/20 12:56:59;;;;;;;1.10;0.93;;;13.80;99.90;;;;;;5073677;28;20468;-75
2022/10/20 12:59:46;;;;;;;1.47;1.37;;;13.90;99.90;;;;;;5074272;28;20416;-74
2022/10/20 13:02:34;;;;;;;0.50;0.40;;;13.90;99.90;;;;;;5074468;28;20436;-74
2022/10/20 13:05:23;;;;;;;0.50;0.30;;;14.00;99.90;;;;;;5073502;28;20530;-75
2022/10/20 13:08:16;;;;;;;0.50;0.40;;;14.20;99.90;;;;;;5073420;28;20413;-75
2022/10/20 13:10:43;;;;;;;0.50;0.40;;;14.30;99.90;;;;;;5073568;28;20440;-75
2022/10/20 13:13:43;;;;;;;0.50;0.40;;;14.40;99.90;;;;;;5073458;28;20440;-75